sensor_id;sensor_type;location;lat;lon;timestamp;pressure;altitude;pressure_sealevel;temperature;humidity
49779;BME280;36217;60.232;24.776;2023-02-28T00:01:30;101355.84;;;-1.39;100.00
49779;BME280;36217;60.232;24.776;2023-02-28T00:03:57;101370.62;;;-1.16;100.00
49779;BME280;36217;60.232;24.776;2023-02-28T00:06:24;101369.87;;;-1.36;100.00
49779;BME280;36217;60.232;24.776;2023-02-28T00:08:51;101363.79;;;-1.23;100.00
49779;BME280;36217;60.232;24.776;2023-02-28T00:11:19;101366.69;;;-1.23;100.00
49779;BME280;36217;60.232;24.776;2023-02-28T00:13:47;101370.92;;;-0.93;100.00
49779;BME280;36217;60.232;24.776;2023-02-28T00:16:16;101375.36;;;-1.24;100.00
49779;BME280;36217;60.232;24.776;2023-02-28T00:18:43;101367.13;;;-1.78;100.00
49779;BME280;36217;60.232;24.776;2023-02-28T00:21:10;101371.89;;;-1.08;100.00
49779;BME280;36217;60.232;24.776;2023-02-28T00:23:37;101377.67;;;-1.35;100.00
49779;BME280;36217;60.232;24.776;2023-02-28T00:26:05;101368.60;;;-1.05;100.00
49779;BME280;36217;60.232;24.776;2023-02-28T00:28:32;101372.27;;;-1.15;100.00
49779;BME280;36217;60.232;24.776;2023-02-28T00:30:59;101371.32;;;-1.19;100.00
49779;BME280;36217;60.232;24.776;2023-02-28T00:33:26;101367.38;;;-1.09;100.00
49779;BME280;36217;60.232;24.776;2023-02-28T00:36:02;101364.78;;;-1.14;100.00
49779;BME280;36217;60.232;24.776;2023-02-28T00:38:29;101358.81;;;-0.79;100.00
49779;BME280;36217;60.232;24.776;2023-02-28T00:40:57;101354.29;;;-0.90;100.00
49779;BME280;36217;60.232;24.776;2023-02-28T00:43:24;101340.27;;;-1.20;100.00
49779;BME280;36217;60.232;24.776;2023-02-28T00:45:51;101338.03;;;-1.11;100.00
49779;BME280;36217;60.232;24.776;2023-02-28T00:48:18;101339.77;;;-1.28;100.00
49779;BME280;36217;60.232;24.776;2023-02-28T00:50:48;101337.84;;;-1.19;100.00
49779;BME280;36217;60.232;24.776;2023-02-28T00:53:15;101339.49;;;-1.48;100.00
49779;BME280;36217;60.232;24.776;2023-02-28T00:55:43;101328.24;;;-1.44;100.00
49779;BME280;36217;60.232;24.776;2023-02-28T00:58:10;101323.41;;;-0.92;100.00
49779;BME280;36217;60.232;24.776;2023-02-28T01:00:37;101318.56;;;-0.88;100.00
49779;BME280;36217;60.232;24.776;2023-02-28T01:03:04;101322.38;;;-1.38;100.00
49779;BME280;36217;60.232;24.776;2023-02-28T01:05:31;101322.94;;;-1.32;100.00
49779;BME280;36217;60.232;24.776;2023-02-28T01:07:59;101315.42;;;-1.23;100.00
49779;BME280;36217;60.232;24.776;2023-02-28T01:10:27;101312.66;;;-1.19;100.00
49779;BME280;36217;60.232;24.776;2023-02-28T01:12:55;101308.29;;;-1.47;100.00
49779;BME280;36217;60.232;24.776;2023-02-28T01:15:22;101307.53;;;-1.70;100.00
49779;BME280;36217;60.232;24.776;2023-02-28T01:17:49;101308.75;;;-1.18;100.00
49779;BME280;36217;60.232;24.776;2023-02-28T01:20:17;101301.55;;;-0.93;100.00
49779;BME280;36217;60.232;24.776;2023-02-28T01:22:44;101305.85;;;-1.37;100.00
49779;BME280;36217;60.232;24.776;2023-02-28T01:25:11;101303.78;;;-1.07;100.00
49779;BME280;36217;60.232;24.776;2023-02-28T01:27:38;101303.28;;;-0.89;100.00
49779;BME280;36217;60.232;24.776;2023-02-28T01:30:07;101305.24;;;-1.46;100.00
49779;BME280;36217;60.232;24.776;2023-02-28T01:32:34;101309.37;;;-0.83;100.00
49779;BME280;36217;60.232;24.776;2023-02-28T01:35:02;101312.95;;;-0.87;100.00
49779;BME280;36217;60.232;24.776;2023-02-28T01:37:29;101312.19;;;-1.13;100.00
49779;BME280;36217;60.232;24.776;2023-02-28T01:39:56;101312.79;;;-0.77;100.00
49779;BME280;36217;60.232;24.776;2023-02-28T01:42:23;101313.90;;;-1.48;100.00
49779;BME280;36217;60.232;24.776;2023-02-28T01:44:58;101311.96;;;-0.99;100.00
49779;BME280;36217;60.232;24.776;2023-02-28T01:47:27;101313.58;;;-0.78;100.00
49779;BME280;36217;60.232;24.776;2023-02-28T01:49:56;101314.43;;;-1.10;100.00
49779;BME280;36217;60.232;24.776;2023-02-28T01:52:24;101307.31;;;-0.90;100.00
49779;BME280;36217;60.232;24.776;2023-02-28T01:54:54;101319.99;;;-0.94;100.00
49779;BME280;36217;60.232;24.776;2023-02-28T01:57:25;101316.23;;;-1.08;100.00
49779;BME280;36217;60.232;24.776;2023-02-28T01:59:57;101312.08;;;-1.00;100.00
49779;BME280;36217;60.232;24.776;2023-02-28T02:02:27;101313.10;;;-0.95;100.00
49779;BME280;36217;60.232;24.776;2023-02-28T02:04:58;101311.49;;;-0.74;100.00
49779;BME280;36217;60.232;24.776;2023-02-28T02:07:26;101304.54;;;-1.76;100.00
49779;BME280;36217;60.232;24.776;2023-02-28T02:10:01;101308.63;;;-1.13;100.00
49779;BME280;36217;60.232;24.776;2023-02-28T02:12:43;101307.70;;;-0.80;100.00
49779;BME280;36217;60.232;24.776;2023-02-28T02:15:16;101295.61;;;-1.47;100.00
49779;BME280;36217;60.232;24.776;2023-02-28T02:17:48;101299.25;;;-1.08;100.00
49779;BME280;36217;60.232;24.776;2023-02-28T02:22:12;101309.46;;;-0.89;100.00
49779;BME280;36217;60.232;24.776;2023-02-28T02:25:03;101310.52;;;-1.08;100.00
49779;BME280;36217;60.232;24.776;2023-02-28T02:27:48;101306.51;;;-1.24;100.00
49779;BME280;36217;60.232;24.776;2023-02-28T02:30:39;101307.26;;;-1.43;100.00
49779;BME280;36217;60.232;24.776;2023-02-28T02:33:42;101304.59;;;-1.44;100.00
49779;BME280;36217;60.232;24.776;2023-02-28T02:36:19;101305.43;;;-1.04;100.00
49779;BME280;36217;60.232;24.776;2023-02-28T02:38:52;101311.59;;;-1.06;100.00
49779;BME280;36217;60.232;24.776;2023-02-28T02:41:24;101310.75;;;-0.89;100.00
49779;BME280;36217;60.232;24.776;2023-02-28T02:43:58;101319.18;;;-1.03;100.00
49779;BME280;36217;60.232;24.776;2023-02-28T02:46:30;101307.65;;;-1.52;100.00
49779;BME280;36217;60.232;24.776;2023-02-28T02:49:00;101302.16;;;-1.21;100.00
49779;BME280;36217;60.232;24.776;2023-02-28T02:51:31;101294.62;;;-0.78;100.00
49779;BME280;36217;60.232;24.776;2023-02-28T02:54:04;101296.39;;;-1.22;100.00
49779;BME280;36217;60.232;24.776;2023-02-28T02:56:33;101288.46;;;-0.98;100.00
49779;BME280;36217;60.232;24.776;2023-02-28T02:59:06;101288.67;;;-1.03;100.00
49779;BME280;36217;60.232;24.776;2023-02-28T03:01:35;101289.95;;;-1.11;100.00
49779;BME280;36217;60.232;24.776;2023-02-28T03:04:05;101288.03;;;-0.77;100.00
49779;BME280;36217;60.232;24.776;2023-02-28T03:06:33;101291.50;;;-1.75;100.00
49779;BME280;36217;60.232;24.776;2023-02-28T03:09:01;101294.97;;;-1.50;100.00
49779;BME280;36217;60.232;24.776;2023-02-28T03:11:28;101290.65;;;-1.38;100.00
49779;BME280;36217;60.232;24.776;2023-02-28T03:14:07;101291.78;;;-1.03;100.00
49779;BME280;36217;60.232;24.776;2023-02-28T03:16:49;101293.23;;;-0.76;100.00
49779;BME280;36217;60.232;24.776;2023-02-28T03:19:30;101294.45;;;-1.04;100.00
49779;BME280;36217;60.232;24.776;2023-02-28T03:22:12;101290.28;;;-0.81;100.00
49779;BME280;36217;60.232;24.776;2023-02-28T03:24:45;101296.24;;;-1.75;100.00
49779;BME280;36217;60.232;24.776;2023-02-28T03:27:19;101306.24;;;-1.31;100.00
49779;BME280;36217;60.232;24.776;2023-02-28T03:29:56;101305.91;;;-1.09;100.00
49779;BME280;36217;60.232;24.776;2023-02-28T03:32:28;101302.76;;;-0.68;100.00
49779;BME280;36217;60.232;24.776;2023-02-28T03:35:03;101303.73;;;-1.28;100.00
49779;BME280;36217;60.232;24.776;2023-02-28T03:37:36;101303.72;;;-1.08;100.00
49779;BME280;36217;60.232;24.776;2023-02-28T03:40:07;101295.36;;;-1.59;100.00
49779;BME280;36217;60.232;24.776;2023-02-28T03:42:38;101297.76;;;-1.04;100.00
49779;BME280;36217;60.232;24.776;2023-02-28T03:45:11;101313.77;;;-1.18;100.00
49779;BME280;36217;60.232;24.776;2023-02-28T03:47:44;101313.67;;;-1.45;100.00
49779;BME280;36217;60.232;24.776;2023-02-28T03:50:16;101305.04;;;-1.18;100.00
49779;BME280;36217;60.232;24.776;2023-02-28T03:52:49;101301.98;;;-1.05;100.00
49779;BME280;36217;60.232;24.776;2023-02-28T03:55:18;101303.09;;;-1.00;100.00
49779;BME280;36217;60.232;24.776;2023-02-28T03:57:56;101309.50;;;-0.71;100.00
49779;BME280;36217;60.232;24.776;2023-02-28T04:00:28;101315.80;;;-1.15;100.00
49779;BME280;36217;60.232;24.776;2023-02-28T04:02:57;101314.73;;;-1.12;100.00
49779;BME280;36217;60.232;24.776;2023-02-28T04:05:25;101309.29;;;-1.03;100.00
49779;BME280;36217;60.232;24.776;2023-02-28T04:07:53;101308.39;;;-0.86;100.00
49779;BME280;36217;60.232;24.776;2023-02-28T04:10:20;101314.17;;;-1.19;100.00
49779;BME280;36217;60.232;24.776;2023-02-28T04:12:47;101316.30;;;-1.31;100.00
49779;BME280;36217;60.232;24.776;2023-02-28T04:15:14;101320.08;;;-0.83;100.00
49779;BME280;36217;60.232;24.776;2023-02-28T04:17:41;101324.93;;;-1.31;100.00
49779;BME280;36217;60.232;24.776;2023-02-28T04:20:10;101324.14;;;-1.09;100.00
49779;BME280;36217;60.232;24.776;2023-02-28T04:22:37;101321.67;;;-1.44;100.00
49779;BME280;36217;60.232;24.776;2023-02-28T04:25:05;101327.05;;;-1.76;100.00
49779;BME280;36217;60.232;24.776;2023-02-28T04:27:32;101320.19;;;-1.48;100.00
49779;BME280;36217;60.232;24.776;2023-02-28T04:29:59;101313.91;;;-1.09;100.00
49779;BME280;36217;60.232;24.776;2023-02-28T04:32:27;101310.89;;;-1.12;100.00
49779;BME280;36217;60.232;24.776;2023-02-28T04:34:54;101312.61;;;-1.19;100.00
49779;BME280;36217;60.232;24.776;2023-02-28T04:37:21;101307.49;;;-1.31;100.00
49779;BME280;36217;60.232;24.776;2023-02-28T04:39:48;101313.56;;;-1.37;100.00
49779;BME280;36217;60.232;24.776;2023-02-28T04:42:15;101320.57;;;-1.18;100.00
49779;BME280;36217;60.232;24.776;2023-02-28T04:44:43;101322.62;;;-1.19;100.00
49779;BME280;36217;60.232;24.776;2023-02-28T04:47:10;101330.40;;;-1.41;100.00
49779;BME280;36217;60.232;24.776;2023-02-28T04:49:37;101329.28;;;-1.01;100.00
49779;BME280;36217;60.232;24.776;2023-02-28T04:52:05;101326.81;;;-0.72;100.00
49779;BME280;36217;60.232;24.776;2023-02-28T04:54:32;101329.57;;;-0.91;100.00
49779;BME280;36217;60.232;24.776;2023-02-28T04:56:59;101326.22;;;-0.75;100.00
49779;BME280;36217;60.232;24.776;2023-02-28T04:59:26;101338.37;;;-0.75;100.00
49779;BME280;36217;60.232;24.776;2023-02-28T05:01:53;101331.12;;;-1.14;100.00
49779;BME280;36217;60.232;24.776;2023-02-28T05:04:20;101332.53;;;-1.52;100.00
49779;BME280;36217;60.232;24.776;2023-02-28T05:06:48;101325.84;;;-1.33;100.00
49779;BME280;36217;60.232;24.776;2023-02-28T05:09:15;101324.88;;;-0.85;100.00
49779;BME280;36217;60.232;24.776;2023-02-28T05:11:42;101319.82;;;-1.28;100.00
49779;BME280;36217;60.232;24.776;2023-02-28T05:14:11;101320.08;;;-0.68;100.00
49779;BME280;36217;60.232;24.776;2023-02-28T05:16:39;101317.00;;;-0.83;100.00
49779;BME280;36217;60.232;24.776;2023-02-28T05:19:05;101329.77;;;-1.13;100.00
49779;BME280;36217;60.232;24.776;2023-02-28T05:21:34;101318.72;;;-1.14;100.00
49779;BME280;36217;60.232;24.776;2023-02-28T05:24:04;101323.52;;;-1.43;100.00
49779;BME280;36217;60.232;24.776;2023-02-28T05:26:34;101319.86;;;-0.78;100.00
49779;BME280;36217;60.232;24.776;2023-02-28T05:29:02;101319.41;;;-1.27;100.00
49779;BME280;36217;60.232;24.776;2023-02-28T05:31:29;101320.26;;;-0.56;100.00
49779;BME280;36217;60.232;24.776;2023-02-28T05:33:56;101329.75;;;-1.12;100.00
49779;BME280;36217;60.232;24.776;2023-02-28T05:36:24;101327.47;;;-0.74;100.00
49779;BME280;36217;60.232;24.776;2023-02-28T05:38:52;101314.00;;;-0.48;100.00
49779;BME280;36217;60.232;24.776;2023-02-28T05:41:20;101320.01;;;-0.78;100.00
49779;BME280;36217;60.232;24.776;2023-02-28T05:43:48;101319.03;;;-0.71;100.00
49779;BME280;36217;60.232;24.776;2023-02-28T05:46:15;101316.93;;;-0.73;100.00
49779;BME280;36217;60.232;24.776;2023-02-28T05:48:47;101309.46;;;-0.57;100.00
49779;BME280;36217;60.232;24.776;2023-02-28T05:51:14;101311.55;;;-0.60;100.00
49779;BME280;36217;60.232;24.776;2023-02-28T05:53:41;101317.22;;;-0.48;100.00
49779;BME280;36217;60.232;24.776;2023-02-28T05:56:08;101306.86;;;-0.42;100.00
49779;BME280;36217;60.232;24.776;2023-02-28T05:58:35;101298.26;;;-0.53;100.00
49779;BME280;36217;60.232;24.776;2023-02-28T06:01:21;101297.14;;;-0.86;100.00
49779;BME280;36217;60.232;24.776;2023-02-28T06:03:48;101296.41;;;-0.21;100.00
49779;BME280;36217;60.232;24.776;2023-02-28T06:06:15;101296.96;;;-0.25;100.00
49779;BME280;36217;60.232;24.776;2023-02-28T06:08:42;101302.10;;;-0.16;100.00
49779;BME280;36217;60.232;24.776;2023-02-28T06:11:10;101310.35;;;-0.59;100.00
49779;BME280;36217;60.232;24.776;2023-02-28T06:13:37;101309.27;;;-0.27;100.00
49779;BME280;36217;60.232;24.776;2023-02-28T06:16:05;101307.77;;;-0.19;100.00
49779;BME280;36217;60.232;24.776;2023-02-28T06:18:32;101307.07;;;-0.21;100.00
49779;BME280;36217;60.232;24.776;2023-02-28T06:20:59;101307.62;;;-0.41;100.00
49779;BME280;36217;60.232;24.776;2023-02-28T06:23:27;101309.68;;;-0.17;100.00
49779;BME280;36217;60.232;24.776;2023-02-28T06:25:54;101309.27;;;-0.13;100.00
49779;BME280;36217;60.232;24.776;2023-02-28T06:28:21;101315.64;;;0.29;100.00
49779;BME280;36217;60.232;24.776;2023-02-28T06:30:48;101313.08;;;-0.02;100.00
49779;BME280;36217;60.232;24.776;2023-02-28T06:33:15;101312.18;;;0.02;100.00
49779;BME280;36217;60.232;24.776;2023-02-28T06:35:43;101314.16;;;0.34;100.00
49779;BME280;36217;60.232;24.776;2023-02-28T06:38:11;101318.79;;;0.27;100.00
49779;BME280;36217;60.232;24.776;2023-02-28T06:40:38;101324.45;;;0.50;100.00
49779;BME280;36217;60.232;24.776;2023-02-28T06:43:05;101322.02;;;0.34;100.00
49779;BME280;36217;60.232;24.776;2023-02-28T06:45:32;101324.93;;;0.61;100.00
49779;BME280;36217;60.232;24.776;2023-02-28T06:47:59;101325.40;;;0.42;100.00
49779;BME280;36217;60.232;24.776;2023-02-28T06:50:27;101337.45;;;0.23;100.00
49779;BME280;36217;60.232;24.776;2023-02-28T06:52:54;101341.95;;;0.49;100.00
49779;BME280;36217;60.232;24.776;2023-02-28T06:55:21;101344.24;;;0.13;100.00
49779;BME280;36217;60.232;24.776;2023-02-28T06:57:48;101346.23;;;0.30;100.00
49779;BME280;36217;60.232;24.776;2023-02-28T07:00:16;101340.00;;;0.59;100.00
49779;BME280;36217;60.232;24.776;2023-02-28T07:02:43;101340.78;;;0.85;100.00
49779;BME280;36217;60.232;24.776;2023-02-28T07:05:10;101340.99;;;0.75;100.00
49779;BME280;36217;60.232;24.776;2023-02-28T07:07:38;101341.20;;;1.04;100.00
49779;BME280;36217;60.232;24.776;2023-02-28T07:10:05;101339.39;;;0.62;100.00
49779;BME280;36217;60.232;24.776;2023-02-28T07:12:33;101334.52;;;1.19;100.00
49779;BME280;36217;60.232;24.776;2023-02-28T07:15:00;101342.65;;;1.20;100.00
49779;BME280;36217;60.232;24.776;2023-02-28T07:17:27;101347.38;;;1.69;100.00
49779;BME280;36217;60.232;24.776;2023-02-28T07:19:54;101335.77;;;0.98;100.00
49779;BME280;36217;60.232;24.776;2023-02-28T07:22:22;101343.30;;;1.53;100.00
49779;BME280;36217;60.232;24.776;2023-02-28T07:24:49;101344.67;;;1.30;100.00
49779;BME280;36217;60.232;24.776;2023-02-28T07:27:16;101349.77;;;1.24;100.00
49779;BME280;36217;60.232;24.776;2023-02-28T07:29:44;101345.87;;;1.42;100.00
49779;BME280;36217;60.232;24.776;2023-02-28T07:32:11;101343.57;;;1.79;100.00
49779;BME280;36217;60.232;24.776;2023-02-28T07:34:38;101343.32;;;2.16;100.00
49779;BME280;36217;60.232;24.776;2023-02-28T07:37:05;101353.06;;;1.94;100.00
49779;BME280;36217;60.232;24.776;2023-02-28T07:39:33;101345.29;;;2.26;100.00
49779;BME280;36217;60.232;24.776;2023-02-28T07:42:00;101352.91;;;2.05;100.00
49779;BME280;36217;60.232;24.776;2023-02-28T07:44:27;101355.65;;;2.05;100.00
49779;BME280;36217;60.232;24.776;2023-02-28T07:46:54;101351.28;;;1.36;100.00
49779;BME280;36217;60.232;24.776;2023-02-28T07:49:21;101344.13;;;2.04;100.00
49779;BME280;36217;60.232;24.776;2023-02-28T07:51:48;101354.01;;;1.62;100.00
49779;BME280;36217;60.232;24.776;2023-02-28T07:54:15;101368.80;;;1.29;100.00
49779;BME280;36217;60.232;24.776;2023-02-28T07:56:43;101365.10;;;1.67;100.00
49779;BME280;36217;60.232;24.776;2023-02-28T07:59:10;101362.09;;;1.91;100.00
49779;BME280;36217;60.232;24.776;2023-02-28T08:01:37;101371.16;;;1.66;100.00
49779;BME280;36217;60.232;24.776;2023-02-28T08:04:04;101373.05;;;2.31;100.00
49779;BME280;36217;60.232;24.776;2023-02-28T08:06:31;101362.82;;;2.51;100.00
49779;BME280;36217;60.232;24.776;2023-02-28T08:08:58;101375.45;;;2.13;100.00
49779;BME280;36217;60.232;24.776;2023-02-28T08:11:26;101374.14;;;2.39;100.00
49779;BME280;36217;60.232;24.776;2023-02-28T08:13:54;101372.54;;;2.80;100.00
49779;BME280;36217;60.232;24.776;2023-02-28T08:16:22;101370.52;;;2.84;100.00
49779;BME280;36217;60.232;24.776;2023-02-28T08:18:49;101372.01;;;2.97;100.00
49779;BME280;36217;60.232;24.776;2023-02-28T08:21:17;101367.97;;;2.77;100.00
49779;BME280;36217;60.232;24.776;2023-02-28T08:23:46;101373.05;;;3.31;100.00
49779;BME280;36217;60.232;24.776;2023-02-28T08:26:14;101379.06;;;3.15;100.00
49779;BME280;36217;60.232;24.776;2023-02-28T08:28:41;101371.52;;;2.82;100.00
49779;BME280;36217;60.232;24.776;2023-02-28T08:31:10;101366.70;;;2.96;100.00
49779;BME280;36217;60.232;24.776;2023-02-28T08:33:37;101369.75;;;3.33;100.00
49779;BME280;36217;60.232;24.776;2023-02-28T08:36:07;101372.40;;;2.92;100.00
49779;BME280;36217;60.232;24.776;2023-02-28T08:38:34;101369.35;;;2.57;100.00
49779;BME280;36217;60.232;24.776;2023-02-28T08:41:03;101385.71;;;2.72;100.00
49779;BME280;36217;60.232;24.776;2023-02-28T08:43:31;101400.08;;;1.80;100.00
49779;BME280;36217;60.232;24.776;2023-02-28T08:47:18;101410.62;;;0.96;100.00
49779;BME280;36217;60.232;24.776;2023-02-28T08:49:45;101430.77;;;-0.10;100.00
49779;BME280;36217;60.232;24.776;2023-02-28T08:52:13;101424.67;;;1.52;100.00
49779;BME280;36217;60.232;24.776;2023-02-28T08:54:40;101419.81;;;0.55;100.00
49779;BME280;36217;60.232;24.776;2023-02-28T08:57:07;101422.39;;;1.15;100.00
49779;BME280;36217;60.232;24.776;2023-02-28T08:59:34;101424.82;;;0.50;100.00
49779;BME280;36217;60.232;24.776;2023-02-28T09:02:01;101411.79;;;0.97;100.00
49779;BME280;36217;60.232;24.776;2023-02-28T09:04:28;101415.19;;;0.71;100.00
49779;BME280;36217;60.232;24.776;2023-02-28T09:06:55;101429.24;;;0.84;100.00
49779;BME280;36217;60.232;24.776;2023-02-28T09:09:23;101440.28;;;0.33;100.00
49779;BME280;36217;60.232;24.776;2023-02-28T09:11:50;101450.14;;;0.76;100.00
49779;BME280;36217;60.232;24.776;2023-02-28T09:14:17;101455.01;;;0.39;100.00
49779;BME280;36217;60.232;24.776;2023-02-28T09:16:44;101460.81;;;1.28;100.00
49779;BME280;36217;60.232;24.776;2023-02-28T09:19:12;101464.25;;;0.87;100.00
49779;BME280;36217;60.232;24.776;2023-02-28T09:21:39;101472.00;;;-0.46;100.00
49779;BME280;36217;60.232;24.776;2023-02-28T09:24:07;101488.81;;;0.52;100.00
49779;BME280;36217;60.232;24.776;2023-02-28T09:26:35;101483.53;;;0.78;100.00
49779;BME280;36217;60.232;24.776;2023-02-28T09:29:02;101465.66;;;0.46;100.00
49779;BME280;36217;60.232;24.776;2023-02-28T09:31:29;101481.77;;;0.56;100.00
49779;BME280;36217;60.232;24.776;2023-02-28T09:33:57;101475.27;;;0.05;100.00
49779;BME280;36217;60.232;24.776;2023-02-28T09:36:24;101484.93;;;0.60;100.00
49779;BME280;36217;60.232;24.776;2023-02-28T09:38:52;101471.89;;;0.93;100.00
49779;BME280;36217;60.232;24.776;2023-02-28T09:41:21;101478.83;;;0.60;100.00
49779;BME280;36217;60.232;24.776;2023-02-28T09:43:51;101484.54;;;0.74;100.00
49779;BME280;36217;60.232;24.776;2023-02-28T09:46:28;101488.20;;;1.08;100.00
49779;BME280;36217;60.232;24.776;2023-02-28T09:48:56;101484.68;;;1.42;100.00
49779;BME280;36217;60.232;24.776;2023-02-28T09:51:33;101482.83;;;1.34;100.00
49779;BME280;36217;60.232;24.776;2023-02-28T09:54:01;101479.35;;;1.54;100.00
49779;BME280;36217;60.232;24.776;2023-02-28T09:56:32;101483.59;;;1.41;100.00
49779;BME280;36217;60.232;24.776;2023-02-28T09:59:05;101481.69;;;1.64;100.00
49779;BME280;36217;60.232;24.776;2023-02-28T10:01:41;101489.97;;;1.51;100.00
49779;BME280;36217;60.232;24.776;2023-02-28T10:04:16;101486.97;;;1.64;100.00
49779;BME280;36217;60.232;24.776;2023-02-28T10:06:50;101488.51;;;1.81;100.00
49779;BME280;36217;60.232;24.776;2023-02-28T10:09:19;101496.82;;;1.51;100.00
49779;BME280;36217;60.232;24.776;2023-02-28T10:11:50;101496.51;;;1.38;100.00
49779;BME280;36217;60.232;24.776;2023-02-28T10:14:21;101491.16;;;2.17;100.00
49779;BME280;36217;60.232;24.776;2023-02-28T10:16:51;101496.46;;;1.99;100.00
49779;BME280;36217;60.232;24.776;2023-02-28T10:19:23;101498.80;;;1.92;100.00
49779;BME280;36217;60.232;24.776;2023-02-28T10:21:57;101492.12;;;2.13;100.00
49779;BME280;36217;60.232;24.776;2023-02-28T10:24:32;101494.11;;;2.10;100.00
49779;BME280;36217;60.232;24.776;2023-02-28T10:27:01;101495.13;;;2.73;100.00
49779;BME280;36217;60.232;24.776;2023-02-28T10:29:33;101497.76;;;2.44;100.00
49779;BME280;36217;60.232;24.776;2023-02-28T10:32:02;101496.51;;;2.55;100.00
49779;BME280;36217;60.232;24.776;2023-02-28T10:34:30;101502.64;;;3.06;100.00
49779;BME280;36217;60.232;24.776;2023-02-28T10:36:59;101496.63;;;3.11;100.00
49779;BME280;36217;60.232;24.776;2023-02-28T10:39:36;101503.25;;;2.97;100.00
49779;BME280;36217;60.232;24.776;2023-02-28T10:42:05;101503.11;;;2.84;100.00
49779;BME280;36217;60.232;24.776;2023-02-28T10:44:44;101510.88;;;2.86;100.00
49779;BME280;36217;60.232;24.776;2023-02-28T10:47:14;101514.70;;;3.02;100.00
49779;BME280;36217;60.232;24.776;2023-02-28T10:49:47;101510.68;;;2.57;100.00
49779;BME280;36217;60.232;24.776;2023-02-28T10:52:33;101503.95;;;3.05;100.00
49779;BME280;36217;60.232;24.776;2023-02-28T10:55:16;101499.42;;;3.00;100.00
49779;BME280;36217;60.232;24.776;2023-02-28T10:57:46;101493.23;;;3.01;100.00
49779;BME280;36217;60.232;24.776;2023-02-28T11:00:16;101496.02;;;3.17;100.00
49779;BME280;36217;60.232;24.776;2023-02-28T11:02:44;101495.83;;;3.02;100.00
49779;BME280;36217;60.232;24.776;2023-02-28T11:05:29;101499.96;;;3.16;100.00
49779;BME280;36217;60.232;24.776;2023-02-28T11:07:59;101503.19;;;3.85;100.00
49779;BME280;36217;60.232;24.776;2023-02-28T11:10:31;101504.50;;;3.23;100.00
49779;BME280;36217;60.232;24.776;2023-02-28T11:12:59;101497.81;;;2.89;100.00
49779;BME280;36217;60.232;24.776;2023-02-28T11:15:28;101502.69;;;3.32;100.00
49779;BME280;36217;60.232;24.776;2023-02-28T11:17:58;101498.55;;;3.26;100.00
49779;BME280;36217;60.232;24.776;2023-02-28T11:20:28;101486.99;;;3.40;100.00
49779;BME280;36217;60.232;24.776;2023-02-28T11:22:57;101487.89;;;3.48;100.00
49779;BME280;36217;60.232;24.776;2023-02-28T11:25:26;101490.16;;;3.05;100.00
49779;BME280;36217;60.232;24.776;2023-02-28T11:27:57;101492.50;;;3.18;100.00
49779;BME280;36217;60.232;24.776;2023-02-28T11:30:27;101491.50;;;3.63;100.00
49779;BME280;36217;60.232;24.776;2023-02-28T11:32:56;101497.16;;;2.71;100.00
49779;BME280;36217;60.232;24.776;2023-02-28T11:35:26;101497.58;;;2.99;100.00
49779;BME280;36217;60.232;24.776;2023-02-28T11:37:55;101500.81;;;2.95;100.00
49779;BME280;36217;60.232;24.776;2023-02-28T11:40:30;101499.68;;;3.07;100.00
49779;BME280;36217;60.232;24.776;2023-02-28T11:43:08;101503.63;;;2.56;100.00
49779;BME280;36217;60.232;24.776;2023-02-28T11:45:45;101491.66;;;2.84;100.00
49779;BME280;36217;60.232;24.776;2023-02-28T11:48:20;101498.51;;;2.59;100.00
49779;BME280;36217;60.232;24.776;2023-02-28T11:50:57;101504.35;;;2.44;100.00
49779;BME280;36217;60.232;24.776;2023-02-28T11:53:40;101496.34;;;2.54;100.00
49779;BME280;36217;60.232;24.776;2023-02-28T11:56:12;101490.90;;;3.21;100.00
49779;BME280;36217;60.232;24.776;2023-02-28T11:58:52;101489.69;;;3.41;100.00
49779;BME280;36217;60.232;24.776;2023-02-28T12:01:31;101489.86;;;3.64;100.00
49779;BME280;36217;60.232;24.776;2023-02-28T12:04:15;101485.59;;;2.84;100.00
49779;BME280;36217;60.232;24.776;2023-02-28T12:06:49;101482.03;;;3.17;100.00
49779;BME280;36217;60.232;24.776;2023-02-28T12:09:32;101481.78;;;3.29;100.00
49779;BME280;36217;60.232;24.776;2023-02-28T12:12:10;101485.61;;;3.27;100.00
49779;BME280;36217;60.232;24.776;2023-02-28T12:14:52;101487.67;;;2.72;100.00
49779;BME280;36217;60.232;24.776;2023-02-28T12:17:34;101479.07;;;3.16;100.00
49779;BME280;36217;60.232;24.776;2023-02-28T12:20:13;101479.36;;;3.17;100.00
49779;BME280;36217;60.232;24.776;2023-02-28T12:22:52;101480.94;;;3.16;100.00
49779;BME280;36217;60.232;24.776;2023-02-28T12:25:41;101479.57;;;3.39;100.00
49779;BME280;36217;60.232;24.776;2023-02-28T12:28:11;101481.43;;;3.36;100.00
49779;BME280;36217;60.232;24.776;2023-02-28T12:30:46;101488.10;;;2.80;100.00
49779;BME280;36217;60.232;24.776;2023-02-28T12:33:18;101488.51;;;3.20;100.00
49779;BME280;36217;60.232;24.776;2023-02-28T12:35:52;101497.79;;;2.72;100.00
49779;BME280;36217;60.232;24.776;2023-02-28T12:38:22;101498.39;;;2.83;98.81
49779;BME280;36217;60.232;24.776;2023-02-28T12:40:53;101498.61;;;2.81;99.11
49779;BME280;36217;60.232;24.776;2023-02-28T12:43:24;101488.80;;;2.91;97.45
49779;BME280;36217;60.232;24.776;2023-02-28T12:45:58;101485.18;;;3.25;96.57
49779;BME280;36217;60.232;24.776;2023-02-28T12:48:30;101492.36;;;2.76;98.03
49779;BME280;36217;60.232;24.776;2023-02-28T12:50:59;101497.02;;;2.95;98.16
49779;BME280;36217;60.232;24.776;2023-02-28T12:53:32;101506.28;;;3.05;96.92